createdAt,value
2023-08-11T00:00:24.135Z,27.70
2023-08-11T00:02:52.505Z,27.70
2023-08-11T00:05:20.709Z,27.70
2023-08-11T00:07:51.722Z,27.70
2023-08-11T00:10:20.898Z,27.70
2023-08-11T00:12:48.693Z,27.70
2023-08-11T00:15:16.439Z,27.70
2023-08-11T00:17:44.217Z,27.60
2023-08-11T00:20:13.409Z,27.60
2023-08-11T00:22:41.190Z,27.60
2023-08-11T00:25:09.882Z,27.60
2023-08-11T00:27:38.946Z,27.60
2023-08-11T00:30:07.822Z,27.60
2023-08-11T00:32:35.584Z,27.60
2023-08-11T00:35:05.076Z,27.60
2023-08-11T00:37:32.800Z,27.60
2023-08-11T00:40:01.108Z,27.60
2023-08-11T00:42:28.964Z,27.60
2023-08-11T00:45:00.887Z,27.60
2023-08-11T00:47:29.009Z,27.60
2023-08-11T00:49:57.038Z,27.50
2023-08-11T00:52:25.004Z,27.50
2023-08-11T00:54:54.823Z,27.50
2023-08-11T00:57:23.136Z,27.50
2023-08-11T00:59:51.049Z,27.50
2023-08-11T01:02:20.852Z,27.50
2023-08-11T01:04:49.295Z,27.50
2023-08-11T01:07:20.500Z,27.40
2023-08-11T01:09:50.934Z,27.40
2023-08-11T01:12:33.074Z,27.40
2023-08-11T01:15:05.830Z,27.40
2023-08-11T01:17:35.382Z,27.40
2023-08-11T01:20:09.667Z,27.40
2023-08-11T01:22:37.590Z,27.40
2023-08-11T01:25:07.928Z,27.40
2023-08-11T01:27:37.583Z,27.40
2023-08-11T01:30:07.976Z,27.40
2023-08-11T01:32:36.287Z,27.40
2023-08-11T01:35:06.788Z,27.30
2023-08-11T01:37:34.674Z,27.30
2023-08-11T01:40:02.800Z,27.30
2023-08-11T01:42:35.576Z,27.30
2023-08-11T01:45:07.497Z,27.30
2023-08-11T01:47:35.345Z,27.30
2023-08-11T01:50:04.088Z,27.30
2023-08-11T01:52:32.570Z,27.30
2023-08-11T01:55:00.719Z,27.30
2023-08-11T01:57:28.465Z,27.30
2023-08-11T01:59:57.922Z,27.20
2023-08-11T02:02:25.661Z,27.20
2023-08-11T02:04:53.919Z,27.20
2023-08-11T02:07:21.859Z,27.20
2023-08-11T02:09:50.459Z,27.20
2023-08-11T02:12:18.530Z,27.20
2023-08-11T02:14:46.716Z,27.20
2023-08-11T02:17:15.984Z,27.20
2023-08-11T02:19:44.199Z,27.20
2023-08-11T02:22:12.080Z,27.20
2023-08-11T02:24:40.498Z,27.20
2023-08-11T02:27:10.336Z,27.20
2023-08-11T02:29:38.319Z,27.20
2023-08-11T02:32:06.743Z,27.10
2023-08-11T02:34:36.432Z,27.10
2023-08-11T02:37:04.414Z,27.10
2023-08-11T02:39:32.574Z,27.10
2023-08-11T02:42:00.650Z,27.10
2023-08-11T02:44:28.375Z,27.10
2023-08-11T02:46:56.503Z,27.10
2023-08-11T02:49:24.211Z,27.00
2023-08-11T02:51:53.863Z,27.10
2023-08-11T02:54:22.118Z,27.00
2023-08-11T02:56:50.096Z,27.10
2023-08-11T02:59:18.040Z,27.10
2023-08-11T03:01:45.854Z,27.00
2023-08-11T03:04:13.643Z,27.00
2023-08-11T03:06:41.379Z,27.00
2023-08-11T03:09:11.122Z,27.00
2023-08-11T03:11:38.936Z,27.00
2023-08-11T03:14:06.693Z,27.00
2023-08-11T03:16:34.655Z,27.00
2023-08-11T03:19:02.364Z,27.00
2023-08-11T03:21:30.485Z,27.00
2023-08-11T03:23:58.195Z,27.00
2023-08-11T03:26:27.294Z,27.00
2023-08-11T03:28:55.661Z,27.00
2023-08-11T03:31:23.507Z,27.00
2023-08-11T03:33:51.569Z,26.90
2023-08-11T03:36:20.247Z,26.90
2023-08-11T03:38:49.487Z,26.90
2023-08-11T03:41:17.476Z,26.90
2023-08-11T03:43:47.337Z,26.90
2023-08-11T03:46:15.321Z,26.90
2023-08-11T03:48:43.675Z,26.90
2023-08-11T03:51:12.761Z,26.90
2023-08-11T03:53:41.416Z,26.90
2023-08-11T03:56:09.863Z,26.90
2023-08-11T03:58:38.512Z,26.90
2023-08-11T04:01:08.055Z,26.80
2023-08-11T04:03:36.330Z,26.80
2023-08-11T04:06:05.123Z,26.80
2023-08-11T04:08:33.489Z,26.80
2023-08-11T04:11:01.407Z,26.80
2023-08-11T04:13:29.432Z,26.80
2023-08-11T04:16:00.407Z,26.80
2023-08-11T04:18:30.058Z,26.80
2023-08-11T04:20:57.985Z,26.80
2023-08-11T04:23:26.423Z,26.80
2023-08-11T04:25:55.077Z,26.80
2023-08-11T04:28:23.383Z,26.70
2023-08-11T04:30:51.738Z,26.70
2023-08-11T04:33:19.909Z,26.70
2023-08-11T04:35:50.796Z,26.70
2023-08-11T04:38:18.981Z,26.70
2023-08-11T04:40:46.903Z,26.70
2023-08-11T04:43:14.968Z,26.70
2023-08-11T04:45:43.607Z,26.70
2023-08-11T04:48:11.704Z,26.70
2023-08-11T04:50:40.213Z,26.70
2023-08-11T04:53:09.959Z,26.70
2023-08-11T04:55:41.587Z,26.70
2023-08-11T04:58:10.283Z,26.70
2023-08-11T05:00:38.973Z,26.60
2023-08-11T05:03:07.224Z,26.60
2023-08-11T05:05:35.533Z,26.60
2023-08-11T05:08:03.989Z,26.60
2023-08-11T05:10:34.728Z,26.60
2023-08-11T05:13:02.530Z,26.60
2023-08-11T05:15:30.955Z,26.60
2023-08-11T05:17:58.828Z,26.60
2023-08-11T05:20:26.944Z,26.60
2023-08-11T05:22:54.939Z,26.60
2023-08-11T05:25:23.073Z,26.60
2023-08-11T05:27:52.636Z,26.60
2023-08-11T05:30:20.698Z,26.50
2023-08-11T05:32:49.149Z,26.50
2023-08-11T05:35:18.409Z,26.60
2023-08-11T05:37:48.694Z,26.50
2023-08-11T05:40:17.509Z,26.60
2023-08-11T05:42:45.554Z,26.50
2023-08-11T05:45:17.784Z,26.50
2023-08-11T05:47:46.869Z,26.50
2023-08-11T05:50:14.839Z,26.50
2023-08-11T05:52:43.304Z,26.50
2023-08-11T05:55:11.737Z,26.50
2023-08-11T05:57:39.833Z,26.50
2023-08-11T06:00:10.107Z,26.50
2023-08-11T06:02:39.638Z,26.50
2023-08-11T06:05:08.098Z,26.50
2023-08-11T06:07:36.172Z,26.50
2023-08-11T06:10:04.556Z,26.60
2023-08-11T06:12:32.691Z,26.60
2023-08-11T06:15:00.819Z,26.60
2023-08-11T06:17:28.901Z,26.60
2023-08-11T06:19:59.069Z,26.60
2023-08-11T06:22:26.943Z,26.60
2023-08-11T06:24:55.577Z,26.70
2023-08-11T06:27:23.678Z,26.70
2023-08-11T06:29:51.619Z,26.70
2023-08-11T06:32:19.632Z,26.80
2023-08-11T06:34:47.692Z,26.80
2023-08-11T06:37:18.176Z,26.80
2023-08-11T06:39:46.191Z,26.90
2023-08-11T06:42:14.131Z,26.90
2023-08-11T06:44:42.046Z,26.90
2023-08-11T06:47:10.202Z,26.90
2023-08-11T06:49:38.932Z,27.00
2023-08-11T06:52:07.260Z,27.00
2023-08-11T06:54:36.745Z,27.00
2023-08-11T06:57:05.649Z,27.10
2023-08-11T06:59:33.691Z,27.30
2023-08-11T07:02:02.323Z,27.30
2023-08-11T07:04:30.344Z,27.40
2023-08-11T07:06:58.331Z,27.50
2023-08-11T07:09:27.212Z,27.60
2023-08-11T07:11:56.651Z,27.60
2023-08-11T07:14:31.984Z,27.70
2023-08-11T07:16:59.998Z,27.80
2023-08-11T07:19:28.007Z,27.90
2023-08-11T07:21:56.033Z,28.00
2023-08-11T07:24:24.412Z,28.10
2023-08-11T07:26:52.731Z,28.20
2023-08-11T07:29:28.416Z,28.30
2023-08-11T07:31:59.173Z,28.40
2023-08-11T07:34:27.628Z,28.40
2023-08-11T07:36:56.124Z,28.50
2023-08-11T07:39:24.588Z,28.70
2023-08-11T07:41:54.474Z,28.70
2023-08-11T07:44:25.779Z,28.80
2023-08-11T07:46:56.322Z,28.90
2023-08-11T07:49:24.460Z,29.00
2023-08-11T07:51:52.421Z,29.10
2023-08-11T07:54:20.826Z,29.30
2023-08-11T07:56:49.134Z,29.40
2023-08-11T07:59:17.361Z,29.50
2023-08-11T08:01:48.248Z,29.60
2023-08-11T08:04:16.235Z,29.70
2023-08-11T08:06:47.219Z,29.80
2023-08-11T08:09:16.264Z,30.00
2023-08-11T08:11:44.825Z,30.10
2023-08-11T08:14:13.438Z,30.20
2023-08-11T08:16:43.013Z,30.30
2023-08-11T08:19:12.962Z,30.50
2023-08-11T08:21:40.822Z,30.60
2023-08-11T08:24:09.415Z,30.70
2023-08-11T08:26:37.372Z,30.90
2023-08-11T08:29:05.546Z,31.00
2023-08-11T08:31:33.531Z,31.10
2023-08-11T08:34:01.733Z,31.30
2023-08-11T08:36:31.257Z,31.40
2023-08-11T08:38:59.156Z,31.50
2023-08-11T08:41:29.480Z,31.70
2023-08-11T08:43:57.526Z,31.80
2023-08-11T08:46:28.450Z,31.90
2023-08-11T08:49:02.145Z,32.10
2023-08-11T08:51:32.064Z,32.20
2023-08-11T08:53:59.893Z,32.40
2023-08-11T08:56:29.373Z,32.50
2023-08-11T08:58:58.417Z,32.70
2023-08-11T09:01:26.567Z,32.80
2023-08-11T09:03:54.751Z,33.00
2023-08-11T09:06:23.027Z,33.10
2023-08-11T09:08:52.397Z,33.30
2023-08-11T09:11:20.411Z,33.40
2023-08-11T09:13:48.493Z,33.60
2023-08-11T09:16:16.703Z,33.70
2023-08-11T09:18:45.535Z,33.80
2023-08-11T09:21:13.879Z,34.00
2023-08-11T09:23:42.088Z,34.10
2023-08-11T09:26:11.311Z,34.30
2023-08-11T09:28:39.471Z,34.40
2023-08-11T09:31:08.322Z,34.60
2023-08-11T09:33:36.211Z,34.70
2023-08-11T09:36:04.376Z,34.90
2023-08-11T09:38:32.269Z,35.00
2023-08-11T09:41:03.158Z,35.10
2023-08-11T09:43:33.206Z,35.30
2023-08-11T09:46:03.081Z,35.40
2023-08-11T09:48:31.070Z,35.60
2023-08-11T09:50:59.256Z,35.80
2023-08-11T09:53:28.086Z,35.90
2023-08-11T09:56:00.792Z,36.10
2023-08-11T09:58:28.802Z,36.20
2023-08-11T10:01:07.266Z,36.40
2023-08-11T10:03:49.285Z,36.50
2023-08-11T10:06:20.515Z,36.70
2023-08-11T10:08:48.915Z,36.90
2023-08-11T10:11:17.456Z,37.10
2023-08-11T10:13:45.243Z,37.20
2023-08-11T10:16:15.365Z,37.40
2023-08-11T10:18:44.076Z,37.50
2023-08-11T10:21:11.913Z,37.70
2023-08-11T10:23:40.000Z,37.80
2023-08-11T10:26:07.812Z,38.00
2023-08-11T10:28:35.616Z,38.20
2023-08-11T10:31:06.489Z,38.40
2023-08-11T10:33:36.040Z,38.60
2023-08-11T10:36:04.146Z,38.70
2023-08-11T10:38:33.142Z,38.90
2023-08-11T10:41:05.279Z,39.00
2023-08-11T10:43:34.551Z,39.20
2023-08-11T10:46:19.925Z,39.40
2023-08-11T10:48:49.238Z,39.50
2023-08-11T10:51:31.088Z,39.70
2023-08-11T10:54:00.001Z,39.90
2023-08-11T10:56:32.662Z,40.00
2023-08-11T10:59:11.160Z,40.30
2023-08-11T11:01:39.611Z,40.40
2023-08-11T11:04:09.330Z,40.60
2023-08-11T11:06:37.441Z,40.80
2023-08-11T11:09:05.672Z,41.00
2023-08-11T11:11:33.734Z,41.20
2023-08-11T11:14:03.690Z,41.30
2023-08-11T11:16:31.711Z,41.50
2023-08-11T11:18:59.825Z,41.60
2023-08-11T11:21:29.953Z,41.90
2023-08-11T11:23:58.127Z,42.40
2023-08-11T11:26:28.478Z,43.50
2023-08-11T11:28:58.250Z,44.60
2023-08-11T11:31:29.737Z,45.70
2023-08-11T11:33:58.285Z,46.70
2023-08-11T11:36:32.675Z,47.60
2023-08-11T11:39:03.771Z,48.50
2023-08-11T11:41:31.846Z,49.30
2023-08-11T11:44:00.229Z,50.00
2023-08-11T11:46:28.276Z,50.60
2023-08-11T11:48:56.347Z,51.30
2023-08-11T11:51:26.412Z,51.90
2023-08-11T11:53:59.688Z,52.30
2023-08-11T11:56:29.638Z,52.80
2023-08-11T11:58:57.981Z,53.10
2023-08-11T12:01:28.337Z,53.40
2023-08-11T12:03:59.428Z,53.70
2023-08-11T12:06:29.277Z,53.90
2023-08-11T12:09:04.617Z,54.10
2023-08-11T12:11:33.087Z,54.30
2023-08-11T12:14:01.067Z,54.50
2023-08-11T12:16:29.501Z,54.60
2023-08-11T12:19:01.042Z,54.80
2023-08-11T12:21:28.976Z,54.80
2023-08-11T12:23:57.256Z,54.70
2023-08-11T12:26:26.322Z,54.80
2023-08-11T12:28:54.069Z,54.80
2023-08-11T12:31:21.857Z,54.70
2023-08-11T12:33:49.713Z,54.70
2023-08-11T12:36:17.678Z,54.70
2023-08-11T12:38:45.724Z,54.60
2023-08-11T12:41:13.937Z,54.50
2023-08-11T12:43:43.080Z,54.40
2023-08-11T12:46:11.056Z,54.30
2023-08-11T12:48:38.893Z,54.30
2023-08-11T12:51:06.728Z,54.30
2023-08-11T12:53:34.557Z,54.20
2023-08-11T12:56:02.388Z,54.10
2023-08-11T12:58:30.641Z,54.00
2023-08-11T13:01:00.270Z,53.70
2023-08-11T13:03:29.296Z,53.30
2023-08-11T13:05:57.322Z,52.90
2023-08-11T13:08:25.497Z,52.50
2023-08-11T13:10:53.263Z,52.10
2023-08-11T13:13:21.050Z,51.80
2023-08-11T13:15:49.143Z,51.50
2023-08-11T13:18:18.621Z,51.30
2023-08-11T13:20:46.614Z,51.10
2023-08-11T13:23:14.876Z,50.30
2023-08-11T13:25:42.725Z,50.00
2023-08-11T13:28:10.533Z,49.60
2023-08-11T13:30:40.351Z,49.30
2023-08-11T13:33:10.637Z,48.90
2023-08-11T13:35:39.816Z,48.60
2023-08-11T13:38:08.032Z,48.30
2023-08-11T13:40:36.018Z,48.10
2023-08-11T13:43:05.669Z,47.70
2023-08-11T13:45:33.500Z,47.50
2023-08-11T13:48:01.309Z,47.30
2023-08-11T13:50:29.688Z,47.10
2023-08-11T13:52:58.878Z,47.30
2023-08-11T13:55:26.808Z,47.60
2023-08-11T13:57:54.798Z,47.80
2023-08-11T14:00:23.120Z,48.10
2023-08-11T14:02:51.452Z,48.50
2023-08-11T14:05:19.540Z,48.70
2023-08-11T14:07:49.699Z,48.90
2023-08-11T14:10:19.564Z,49.00
2023-08-11T14:12:47.730Z,49.00
2023-08-11T14:15:15.569Z,49.00
2023-08-11T14:17:43.377Z,48.90
2023-08-11T14:20:13.078Z,48.80
2023-08-11T14:22:40.863Z,48.30
2023-08-11T14:25:09.243Z,47.80
2023-08-11T14:27:38.363Z,47.20
2023-08-11T14:30:08.344Z,46.70
2023-08-11T14:32:36.224Z,46.30
2023-08-11T14:35:04.541Z,46.00
2023-08-11T14:37:32.727Z,45.60
2023-08-11T14:40:00.906Z,45.30
2023-08-11T14:42:28.744Z,44.90
2023-08-11T14:44:58.168Z,44.70
2023-08-11T14:47:26.262Z,44.30
2023-08-11T14:49:54.142Z,44.00
2023-08-11T14:52:22.234Z,43.80
2023-08-11T14:54:50.021Z,43.60
2023-08-11T14:57:18.758Z,43.50
2023-08-11T14:59:46.561Z,43.20
2023-08-11T15:02:15.657Z,43.10
2023-08-11T15:04:43.434Z,42.90
2023-08-11T15:07:11.678Z,42.70
2023-08-11T15:09:40.178Z,42.60
2023-08-11T15:12:09.449Z,42.40
2023-08-11T15:14:38.202Z,42.20
2023-08-11T15:17:06.404Z,42.00
2023-08-11T15:19:35.685Z,41.90
2023-08-11T15:22:06.764Z,41.70
2023-08-11T15:24:35.132Z,40.60
2023-08-11T15:27:34.301Z,37.80
2023-08-11T15:31:20.706Z,36.30
2023-08-11T15:34:18.280Z,35.40
2023-08-11T15:36:54.126Z,34.50
2023-08-11T15:39:22.336Z,34.40
2023-08-11T15:41:50.484Z,34.30
2023-08-11T15:44:23.847Z,33.80
2023-08-11T15:46:52.591Z,33.80
2023-08-11T15:49:20.531Z,33.50
2023-08-11T15:51:50.198Z,33.20
2023-08-11T15:54:21.778Z,33.30
2023-08-11T15:56:50.168Z,33.40
2023-08-11T15:59:19.769Z,33.20
2023-08-11T16:02:14.572Z,33.20
2023-08-11T16:04:43.158Z,33.00
2023-08-11T16:07:13.196Z,33.00
2023-08-11T16:09:41.338Z,32.70
2023-08-11T16:12:19.487Z,32.50
2023-08-11T16:14:49.519Z,32.60
2023-08-11T16:17:26.469Z,32.70
2023-08-11T16:20:05.396Z,32.70
2023-08-11T16:22:38.114Z,32.70
2023-08-11T16:25:18.335Z,32.30
2023-08-11T16:28:03.031Z,32.60
2023-08-11T16:30:34.618Z,32.60
2023-08-11T16:33:02.673Z,32.80
2023-08-11T16:35:30.716Z,33.00
2023-08-11T16:37:59.992Z,32.90
2023-08-11T16:40:28.656Z,32.40
2023-08-11T16:42:56.687Z,32.30
2023-08-11T16:45:24.840Z,32.20
2023-08-11T16:47:52.732Z,31.80
2023-08-11T16:50:21.365Z,31.80
2023-08-11T16:52:54.169Z,32.00
2023-08-11T16:55:23.748Z,32.20
2023-08-11T16:57:52.173Z,32.20
2023-08-11T17:00:20.426Z,32.30
2023-08-11T17:02:49.917Z,32.40
2023-08-11T17:05:18.048Z,32.60
2023-08-11T17:07:46.010Z,32.90
2023-08-11T17:10:13.887Z,32.70
2023-08-11T17:12:52.136Z,32.30
2023-08-11T17:15:21.505Z,32.10
2023-08-11T17:17:49.652Z,32.10
2023-08-11T17:20:18.289Z,31.70
2023-08-11T17:22:46.160Z,31.90
2023-08-11T17:25:14.382Z,31.60
2023-08-11T17:27:42.229Z,31.40
2023-08-11T17:30:14.191Z,31.50
2023-08-11T17:32:43.881Z,31.20
2023-08-11T17:35:12.306Z,31.10
2023-08-11T17:37:40.264Z,31.20
2023-08-11T17:40:09.937Z,31.30
2023-08-11T17:42:37.823Z,31.10
2023-08-11T17:45:06.592Z,31.00
2023-08-11T17:47:36.539Z,30.90
2023-08-11T17:50:05.407Z,31.30
2023-08-11T17:52:34.827Z,31.10
2023-08-11T17:55:10.177Z,31.00
2023-08-11T17:57:39.107Z,31.00
2023-08-11T18:00:14.328Z,31.00
2023-08-11T18:02:52.971Z,30.80
2023-08-11T18:05:24.281Z,30.90
2023-08-11T18:07:52.416Z,30.80
2023-08-11T18:10:20.926Z,30.70
2023-08-11T18:12:48.889Z,30.60
2023-08-11T18:15:17.034Z,30.50
2023-08-11T18:17:46.625Z,30.60
2023-08-11T18:20:14.777Z,30.50
2023-08-11T18:22:42.981Z,30.40
2023-08-11T18:25:12.025Z,30.20
2023-08-11T18:27:40.531Z,29.90
2023-08-11T18:30:09.827Z,29.90
2023-08-11T18:32:38.058Z,30.10
2023-08-11T18:35:08.215Z,30.30
2023-08-11T18:37:36.253Z,30.10
2023-08-11T18:40:07.437Z,30.20
2023-08-11T18:42:35.629Z,30.00
2023-08-11T18:45:03.625Z,30.30
2023-08-11T18:47:32.380Z,30.30
2023-08-11T18:50:00.705Z,30.40
2023-08-11T18:52:30.133Z,30.60
2023-08-11T18:54:58.945Z,30.60
2023-08-11T18:57:26.987Z,30.40
2023-08-11T18:59:55.715Z,30.50
2023-08-11T19:02:25.515Z,30.70
2023-08-11T19:04:53.767Z,31.00
2023-08-11T19:07:21.607Z,31.00
2023-08-11T19:09:51.669Z,30.50
2023-08-11T19:12:19.836Z,29.70
2023-08-11T19:14:47.989Z,29.60
2023-08-11T19:17:15.953Z,29.40
2023-08-11T19:19:44.166Z,29.10
2023-08-11T19:22:12.580Z,29.00
2023-08-11T19:24:41.196Z,29.20
2023-08-11T19:27:10.691Z,29.50
2023-08-11T19:29:39.044Z,29.60
2023-08-11T19:32:08.832Z,29.80
2023-08-11T19:34:37.411Z,29.90
2023-08-11T19:37:06.047Z,30.20
2023-08-11T19:39:34.025Z,30.20
2023-08-11T19:42:02.197Z,30.40
2023-08-11T19:44:31.437Z,30.30
2023-08-11T19:46:59.422Z,30.30
2023-08-11T19:49:27.553Z,30.00
2023-08-11T19:51:56.162Z,29.90
2023-08-11T19:54:24.297Z,29.90
2023-08-11T19:56:54.262Z,29.60
2023-08-11T19:59:22.680Z,29.60
2023-08-11T20:01:52.322Z,29.40
2023-08-11T20:04:22.493Z,29.40
2023-08-11T20:06:50.464Z,29.70
2023-08-11T20:09:20.434Z,30.00
2023-08-11T20:11:48.665Z,30.00
2023-08-11T20:14:17.248Z,30.20
2023-08-11T20:16:46.775Z,29.90
2023-08-11T20:19:16.059Z,29.50
2023-08-11T20:21:44.622Z,29.60
2023-08-11T20:24:12.884Z,29.80
2023-08-11T20:26:40.681Z,29.80
2023-08-11T20:29:08.603Z,29.40
2023-08-11T20:31:39.397Z,29.50
2023-08-11T20:34:07.239Z,29.40
2023-08-11T20:36:36.814Z,29.50
2023-08-11T20:39:04.919Z,29.40
2023-08-11T20:41:32.770Z,29.30
2023-08-11T20:44:01.328Z,29.60
2023-08-11T20:46:31.745Z,29.80
2023-08-11T20:49:00.476Z,29.90
2023-08-11T20:51:31.243Z,29.90
2023-08-11T20:54:01.011Z,29.90
2023-08-11T20:56:29.442Z,29.70
2023-08-11T20:58:58.098Z,29.50
2023-08-11T21:01:28.765Z,29.60
2023-08-11T21:03:56.958Z,29.60
2023-08-11T21:06:25.410Z,29.60
2023-08-11T21:08:58.134Z,29.60
2023-08-11T21:11:27.675Z,29.40
2023-08-11T21:14:01.564Z,29.40
2023-08-11T21:16:29.580Z,29.20
2023-08-11T21:19:01.084Z,29.30
2023-08-11T21:21:29.248Z,29.20
2023-08-11T21:24:00.640Z,29.20
2023-08-11T21:26:31.530Z,29.20
2023-08-11T21:29:03.263Z,29.40
2023-08-11T21:31:31.678Z,29.10
2023-08-11T21:34:07.668Z,29.20
2023-08-11T21:36:38.368Z,29.10
2023-08-11T21:39:07.713Z,28.80
2023-08-11T21:41:40.531Z,28.70
2023-08-11T21:44:12.036Z,28.50
2023-08-11T21:46:40.727Z,28.60
2023-08-11T21:49:20.722Z,28.40
2023-08-11T21:51:49.262Z,28.40
2023-08-11T21:54:17.578Z,28.40
2023-08-11T21:56:51.670Z,28.40
2023-08-11T21:59:19.863Z,28.50
2023-08-11T22:01:48.392Z,28.50
2023-08-11T22:04:17.847Z,28.40
2023-08-11T22:06:48.415Z,28.50
2023-08-11T22:09:16.954Z,28.20
2023-08-11T22:11:46.621Z,28.20
2023-08-11T22:14:14.801Z,28.30
2023-08-11T22:16:42.934Z,28.40
2023-08-11T22:19:11.025Z,28.00
2023-08-11T22:21:39.290Z,27.80
2023-08-11T22:24:07.849Z,27.90
2023-08-11T22:26:36.227Z,27.70
2023-08-11T22:29:05.628Z,27.70
2023-08-11T22:31:33.459Z,27.80
2023-08-11T22:34:01.314Z,27.70
2023-08-11T22:36:29.152Z,27.50
2023-08-11T22:38:56.954Z,27.60
2023-08-11T22:41:24.919Z,27.60
2023-08-11T22:43:53.125Z,27.50
2023-08-11T22:46:22.354Z,27.60
2023-08-11T22:48:50.213Z,27.80
2023-08-11T22:51:18.107Z,27.80
2023-08-11T22:53:46.503Z,27.50
2023-08-11T22:56:14.412Z,27.60
2023-08-11T22:58:42.376Z,27.70
2023-08-11T23:01:10.644Z,27.80
2023-08-11T23:03:39.854Z,28.00
2023-08-11T23:06:08.357Z,28.00
2023-08-11T23:08:36.587Z,27.90
2023-08-11T23:11:05.199Z,27.90
2023-08-11T23:13:33.748Z,27.80
2023-08-11T23:16:01.880Z,27.80
2023-08-11T23:18:29.851Z,27.80
2023-08-11T23:20:59.366Z,27.80
2023-08-11T23:23:27.457Z,27.90
2023-08-11T23:25:55.734Z,27.70
2023-08-11T23:28:25.256Z,27.50
2023-08-11T23:30:53.180Z,27.50
2023-08-11T23:33:21.143Z,27.60
2023-08-11T23:35:49.039Z,27.60
2023-08-11T23:38:18.471Z,27.70
2023-08-11T23:40:46.484Z,27.60
2023-08-11T23:43:14.405Z,27.40
2023-08-11T23:45:42.507Z,26.90
2023-08-11T23:48:10.551Z,27.00
2023-08-11T23:50:39.098Z,27.40
2023-08-11T23:53:07.012Z,27.50
2023-08-11T23:55:36.971Z,27.80
2023-08-11T23:58:05.651Z,28.20
